createdAt,value
2022-11-17T00:00:11.358Z,0.70
2022-11-17T00:00:23.360Z,0.77
2022-11-17T00:00:35.189Z,0.77
2022-11-17T00:00:47.014Z,0.75
2022-11-17T00:01:08.730Z,0.70
2022-11-17T00:01:21.884Z,0.47
2022-11-17T00:01:33.706Z,0.60
2022-11-17T00:01:45.520Z,0.88
2022-11-17T00:01:57.400Z,1.27
2022-11-17T00:02:09.211Z,1.38
2022-11-17T00:02:21.031Z,0.85
2022-11-17T00:02:32.923Z,0.90
2022-11-17T00:02:45.510Z,0.70
2022-11-17T00:02:57.351Z,0.55
2022-11-17T00:03:16.149Z,0.57
2022-11-17T00:03:28.135Z,0.80
2022-11-17T00:03:39.910Z,0.80
2022-11-17T00:03:51.989Z,0.90
2022-11-17T00:04:03.748Z,0.75
2022-11-17T00:04:15.707Z,0.90
2022-11-17T00:04:30.357Z,0.90
2022-11-17T00:04:42.133Z,0.70
2022-11-17T00:04:56.614Z,0.60
2022-11-17T00:05:09.161Z,0.65
2022-11-17T00:05:21.246Z,0.70
2022-11-17T00:05:35.365Z,0.40
2022-11-17T00:05:47.187Z,0.40
2022-11-17T00:06:04.518Z,0.38
2022-11-17T00:06:16.942Z,0.50
2022-11-17T00:06:28.747Z,0.50
2022-11-17T00:06:40.574Z,0.60
2022-11-17T00:06:52.627Z,0.70
2022-11-17T00:07:04.428Z,0.60
2022-11-17T00:07:16.309Z,0.55
2022-11-17T00:07:28.196Z,0.52
2022-11-17T00:07:40.224Z,0.68
2022-11-17T00:07:52.066Z,0.68
2022-11-17T00:08:03.957Z,0.68
2022-11-17T00:08:15.759Z,0.65
2022-11-17T00:08:27.494Z,0.85
2022-11-17T00:08:39.383Z,0.95
2022-11-17T00:08:52.496Z,0.80
2022-11-17T00:09:04.299Z,0.75
2022-11-17T00:09:17.495Z,1.00
2022-11-17T00:09:29.462Z,0.98
2022-11-17T00:09:41.830Z,0.73
2022-11-17T00:09:53.638Z,0.55
2022-11-17T00:10:06.246Z,0.70
2022-11-17T00:10:18.196Z,0.70
2022-11-17T00:10:30.007Z,0.45
2022-11-17T00:10:41.888Z,0.40
2022-11-17T00:10:53.697Z,0.57
2022-11-17T00:11:06.082Z,0.63
2022-11-17T00:11:18.239Z,0.93
2022-11-17T00:11:52.851Z,0.80
2022-11-17T00:12:24.633Z,0.73
2022-11-17T00:13:08.390Z,0.40
2022-11-17T00:13:39.017Z,0.50
2022-11-17T00:14:09.375Z,0.50
2022-11-17T00:14:33.102Z,1.00
2022-11-17T00:14:45.065Z,0.70
2022-11-17T00:14:56.827Z,0.70
2022-11-17T00:15:08.994Z,0.80
2022-11-17T00:15:20.805Z,0.90
2022-11-17T00:15:32.698Z,0.90
2022-11-17T00:15:44.709Z,0.70
2022-11-17T00:15:56.629Z,0.93
2022-11-17T00:16:08.389Z,0.88
2022-11-17T00:16:20.827Z,0.98
2022-11-17T00:16:32.711Z,0.90
2022-11-17T00:16:49.680Z,0.75
2022-11-17T00:17:05.287Z,0.40
2022-11-17T00:17:17.074Z,0.77
2022-11-17T00:17:28.826Z,1.05
2022-11-17T00:17:40.622Z,0.80
2022-11-17T00:18:10.996Z,0.70
2022-11-17T00:18:41.358Z,0.60
2022-11-17T00:19:11.842Z,0.60
2022-11-17T00:19:42.279Z,0.70
2022-11-17T00:20:12.822Z,0.77
2022-11-17T00:20:43.338Z,0.68
2022-11-17T00:21:13.615Z,0.90
2022-11-17T00:21:28.926Z,0.70
2022-11-17T00:21:40.711Z,0.60
2022-11-17T00:21:53.109Z,0.60
2022-11-17T00:22:04.897Z,0.52
2022-11-17T00:22:18.114Z,0.60
2022-11-17T00:22:33.035Z,0.93
2022-11-17T00:22:44.804Z,0.90
2022-11-17T00:22:56.530Z,0.55
2022-11-17T00:23:08.293Z,0.50
2022-11-17T00:23:20.152Z,0.52
2022-11-17T00:23:50.177Z,0.50
2022-11-17T00:24:02.323Z,0.60
2022-11-17T00:24:16.776Z,0.60
2022-11-17T00:24:28.515Z,0.52
2022-11-17T00:24:40.301Z,0.40
2022-11-17T00:24:52.096Z,0.52
2022-11-17T00:25:04.124Z,0.60
2022-11-17T00:25:16.059Z,0.57
2022-11-17T00:25:27.846Z,0.50
2022-11-17T00:25:39.610Z,0.43
2022-11-17T00:25:51.550Z,0.70
2022-11-17T00:26:03.369Z,0.98
2022-11-17T00:26:22.423Z,0.85
2022-11-17T00:26:35.817Z,0.63
2022-11-17T00:27:02.662Z,0.82
2022-11-17T00:27:14.479Z,0.50
2022-11-17T00:27:26.307Z,0.47
2022-11-17T00:27:38.085Z,0.52
2022-11-17T00:27:49.903Z,0.90
2022-11-17T00:28:01.683Z,1.10
2022-11-17T00:28:13.475Z,1.38
2022-11-17T00:28:25.243Z,1.10
2022-11-17T00:28:37.012Z,0.68
2022-11-17T00:28:58.622Z,0.60
2022-11-17T00:29:10.549Z,0.93
2022-11-17T00:29:22.433Z,0.90
2022-11-17T00:29:38.577Z,0.80
2022-11-17T00:29:51.098Z,0.70
2022-11-17T00:30:03.068Z,1.00
2022-11-17T00:30:34.855Z,0.93
2022-11-17T00:31:05.082Z,0.75
2022-11-17T00:31:35.550Z,0.90
2022-11-17T00:32:05.915Z,0.65
2022-11-17T00:32:37.357Z,0.60
2022-11-17T00:33:07.572Z,0.55
2022-11-17T00:33:38.115Z,1.38
2022-11-17T00:34:04.849Z,1.15
2022-11-17T00:34:21.741Z,0.50
2022-11-17T00:34:33.458Z,0.57
2022-11-17T00:34:45.239Z,0.73
2022-11-17T00:34:57.106Z,0.80
2022-11-17T00:35:08.990Z,0.77
2022-11-17T00:35:20.756Z,0.60
2022-11-17T00:35:32.561Z,0.70
2022-11-17T00:35:45.943Z,0.82
2022-11-17T00:36:01.010Z,0.60
2022-11-17T00:36:12.789Z,0.50
2022-11-17T00:36:25.911Z,0.60
2022-11-17T00:36:51.824Z,0.70
2022-11-17T00:37:03.688Z,0.63
2022-11-17T00:37:15.590Z,0.70
2022-11-17T00:37:29.096Z,0.65
2022-11-17T00:38:03.604Z,0.63
2022-11-17T00:38:15.441Z,0.60
2022-11-17T00:38:27.265Z,0.50
2022-11-17T00:38:39.120Z,0.65
2022-11-17T00:38:50.904Z,0.70
2022-11-17T00:39:02.691Z,1.00
2022-11-17T00:39:15.584Z,0.70
2022-11-17T00:39:27.356Z,0.70
2022-11-17T00:39:39.169Z,0.60
2022-11-17T00:39:51.867Z,0.47
2022-11-17T00:40:06.830Z,0.50
2022-11-17T00:40:18.681Z,0.55
2022-11-17T00:40:30.572Z,0.70
2022-11-17T00:40:42.433Z,0.90
2022-11-17T00:40:54.254Z,0.80
2022-11-17T00:41:06.266Z,0.45
2022-11-17T00:41:18.042Z,0.40
2022-11-17T00:41:29.951Z,0.43
2022-11-17T00:41:41.972Z,0.50
2022-11-17T00:41:53.740Z,0.60
2022-11-17T00:42:05.687Z,0.60
2022-11-17T00:42:17.501Z,0.63
2022-11-17T00:42:29.322Z,0.60
2022-11-17T00:42:41.055Z,0.60
2022-11-17T00:42:52.853Z,0.50
2022-11-17T00:43:04.667Z,0.57
2022-11-17T00:43:16.428Z,0.57
2022-11-17T00:43:28.221Z,0.52
2022-11-17T00:43:40.001Z,0.70
2022-11-17T00:43:51.779Z,0.80
2022-11-17T00:44:03.790Z,0.57
2022-11-17T00:44:16.039Z,0.52
2022-11-17T00:44:28.213Z,0.60
2022-11-17T00:44:40.006Z,0.60
2022-11-17T00:44:51.846Z,0.50
2022-11-17T00:45:03.920Z,0.40
2022-11-17T00:45:15.808Z,0.40
2022-11-17T00:45:30.570Z,0.40
2022-11-17T00:45:42.374Z,0.50
2022-11-17T00:45:54.115Z,0.60
2022-11-17T00:46:05.990Z,0.55
2022-11-17T00:46:17.782Z,0.40
2022-11-17T00:46:29.865Z,0.40
2022-11-17T00:46:41.904Z,0.40
2022-11-17T00:46:53.766Z,0.35
2022-11-17T00:47:05.695Z,0.40
2022-11-17T00:47:17.492Z,0.45
2022-11-17T00:47:29.298Z,0.85
2022-11-17T00:47:42.529Z,1.00
2022-11-17T00:47:54.406Z,0.75
2022-11-17T00:48:06.647Z,0.70
2022-11-17T00:48:18.420Z,0.70
2022-11-17T00:48:30.177Z,0.90
2022-11-17T00:48:41.924Z,1.20
2022-11-17T00:48:53.828Z,1.02
2022-11-17T00:49:06.445Z,0.73
2022-11-17T00:49:20.101Z,0.60
2022-11-17T00:49:32.015Z,0.77
2022-11-17T00:49:43.727Z,0.55
2022-11-17T00:49:55.552Z,0.60
2022-11-17T00:50:07.965Z,0.70
2022-11-17T00:50:19.765Z,0.65
2022-11-17T00:50:31.532Z,0.70
2022-11-17T00:50:43.513Z,0.60
2022-11-17T00:50:55.311Z,0.80
2022-11-17T00:51:07.264Z,0.60
2022-11-17T00:51:19.265Z,0.57
2022-11-17T00:51:31.206Z,0.40
2022-11-17T00:51:43.180Z,0.60
2022-11-17T00:51:55.617Z,0.50
2022-11-17T00:52:07.434Z,0.50
2022-11-17T00:52:19.236Z,0.60
2022-11-17T00:52:30.996Z,0.55
2022-11-17T00:52:42.763Z,0.43
2022-11-17T00:52:54.913Z,0.40
2022-11-17T00:53:06.657Z,0.40
2022-11-17T00:53:18.535Z,0.52
2022-11-17T00:53:30.284Z,0.90
2022-11-17T00:53:42.057Z,1.27
2022-11-17T00:53:53.849Z,1.20
2022-11-17T00:54:06.185Z,0.70
2022-11-17T00:54:18.139Z,0.77
2022-11-17T00:54:30.025Z,0.65
2022-11-17T00:54:41.792Z,0.40
2022-11-17T00:54:53.533Z,0.40
2022-11-17T00:55:06.260Z,0.45
2022-11-17T00:55:18.104Z,0.57
2022-11-17T00:55:30.111Z,0.60
2022-11-17T00:55:42.947Z,0.50
2022-11-17T00:55:54.821Z,0.40
2022-11-17T00:56:06.942Z,0.50
2022-11-17T00:56:18.817Z,0.57
2022-11-17T00:56:30.718Z,0.47
2022-11-17T00:56:42.529Z,0.40
2022-11-17T00:56:54.643Z,0.50
2022-11-17T00:57:06.677Z,0.90
2022-11-17T00:57:18.548Z,0.88
2022-11-17T00:57:30.345Z,0.45
2022-11-17T00:57:42.233Z,0.52
2022-11-17T00:57:54.081Z,0.60
2022-11-17T00:58:05.879Z,0.98
2022-11-17T00:58:17.707Z,0.90
2022-11-17T00:58:29.472Z,0.63
2022-11-17T00:58:41.269Z,0.90
2022-11-17T00:58:53.199Z,0.85
2022-11-17T00:59:05.028Z,0.63
2022-11-17T00:59:17.284Z,0.47
2022-11-17T00:59:29.246Z,0.63
2022-11-17T00:59:41.100Z,0.85
2022-11-17T00:59:52.932Z,0.95
2022-11-17T01:00:05.530Z,0.98
2022-11-17T01:00:17.613Z,0.80
2022-11-17T01:00:29.412Z,0.75
2022-11-17T01:00:41.243Z,0.52
2022-11-17T01:00:53.120Z,0.70
2022-11-17T01:01:05.472Z,0.88
2022-11-17T01:01:17.312Z,0.82
2022-11-17T01:01:30.075Z,0.45
2022-11-17T01:01:42.766Z,0.40
2022-11-17T01:01:54.756Z,0.70
2022-11-17T01:02:06.515Z,0.80
2022-11-17T01:02:18.329Z,0.50
2022-11-17T01:02:30.073Z,0.57
2022-11-17T01:02:41.898Z,0.50
2022-11-17T01:02:53.685Z,0.73
2022-11-17T01:03:05.575Z,0.75
2022-11-17T01:03:17.345Z,0.85
2022-11-17T01:03:29.167Z,0.70
2022-11-17T01:03:41.083Z,0.50
2022-11-17T01:04:02.839Z,0.40
2022-11-17T01:04:15.445Z,0.50
2022-11-17T01:04:27.289Z,0.63
2022-11-17T01:04:39.093Z,0.78
2022-11-17T01:04:50.902Z,0.90
2022-11-17T01:05:02.785Z,0.60
2022-11-17T01:05:14.654Z,0.55
2022-11-17T01:05:30.341Z,0.52
2022-11-17T01:05:44.652Z,0.50
2022-11-17T01:05:56.435Z,0.70
2022-11-17T01:06:13.576Z,0.70
2022-11-17T01:06:25.464Z,0.60
2022-11-17T01:06:39.820Z,0.60
2022-11-17T01:06:51.760Z,0.60
2022-11-17T01:07:03.747Z,0.60
2022-11-17T01:07:15.622Z,0.43
2022-11-17T01:07:27.580Z,0.40
2022-11-17T01:07:39.547Z,0.50
2022-11-17T01:07:53.333Z,0.60
2022-11-17T01:08:05.445Z,0.52
2022-11-17T01:08:17.241Z,0.50
2022-11-17T01:08:29.037Z,0.43
2022-11-17T01:08:40.898Z,0.50
2022-11-17T01:08:52.674Z,0.60
2022-11-17T01:09:13.289Z,0.70
2022-11-17T01:09:25.115Z,0.50
2022-11-17T01:09:36.892Z,0.50
2022-11-17T01:09:48.775Z,0.50
2022-11-17T01:10:00.596Z,0.45
2022-11-17T01:10:12.822Z,0.70
2022-11-17T01:10:24.667Z,0.70
2022-11-17T01:10:36.588Z,0.56
2022-11-17T01:10:48.418Z,0.70
2022-11-17T01:11:17.976Z,0.70
2022-11-17T01:11:29.921Z,0.52
2022-11-17T01:11:42.412Z,0.60
2022-11-17T01:11:54.252Z,0.60
2022-11-17T01:12:06.376Z,0.70
2022-11-17T01:12:18.234Z,0.70
2022-11-17T01:12:30.069Z,0.73
2022-11-17T01:12:41.828Z,0.70
2022-11-17T01:12:53.613Z,0.73
2022-11-17T01:13:05.858Z,0.43
2022-11-17T01:13:18.132Z,0.70
2022-11-17T01:13:29.951Z,0.70
2022-11-17T01:13:42.055Z,0.90
2022-11-17T01:13:56.538Z,0.80
2022-11-17T01:14:09.733Z,0.80
2022-11-17T01:14:25.310Z,1.45
2022-11-17T01:14:37.277Z,1.50
2022-11-17T01:14:49.088Z,0.70
2022-11-17T01:15:00.898Z,0.55
2022-11-17T01:15:12.718Z,0.60
2022-11-17T01:15:24.562Z,0.50
2022-11-17T01:15:36.414Z,0.40
2022-11-17T01:15:48.269Z,0.50
2022-11-17T01:16:05.570Z,0.52
2022-11-17T01:16:18.670Z,0.77
2022-11-17T01:16:31.173Z,0.85
2022-11-17T01:16:43.134Z,0.60
2022-11-17T01:16:55.250Z,0.70
2022-11-17T01:17:07.109Z,0.75
2022-11-17T01:17:19.026Z,0.60
2022-11-17T01:17:30.858Z,0.50
2022-11-17T01:17:42.594Z,0.50
2022-11-17T01:17:54.377Z,0.75
2022-11-17T01:18:06.198Z,0.85
2022-11-17T01:18:17.966Z,0.85
2022-11-17T01:18:29.883Z,0.68
2022-11-17T01:18:42.241Z,0.57
2022-11-17T01:18:54.179Z,0.60
2022-11-17T01:19:06.011Z,0.60
2022-11-17T01:19:18.138Z,0.70
2022-11-17T01:19:32.674Z,0.70
2022-11-17T01:19:44.493Z,0.52
2022-11-17T01:19:56.286Z,0.65
2022-11-17T01:20:09.229Z,0.73
2022-11-17T01:20:21.052Z,0.85
2022-11-17T01:20:33.580Z,0.80
2022-11-17T01:20:45.326Z,1.00
2022-11-17T01:20:57.111Z,0.80
2022-11-17T01:21:19.500Z,1.00
2022-11-17T01:21:32.025Z,1.00
2022-11-17T01:21:44.035Z,1.00
2022-11-17T01:21:56.238Z,0.80
2022-11-17T01:22:08.058Z,0.55
2022-11-17T01:22:19.828Z,0.45
2022-11-17T01:22:31.728Z,0.52
2022-11-17T01:22:43.507Z,0.90
2022-11-17T01:22:55.491Z,0.70
2022-11-17T01:23:07.250Z,0.47
2022-11-17T01:23:19.049Z,0.60
2022-11-17T01:23:30.870Z,0.70
2022-11-17T01:23:43.501Z,0.60
2022-11-17T01:23:56.609Z,0.77
2022-11-17T01:24:09.715Z,0.68
2022-11-17T01:24:21.505Z,0.52
2022-11-17T01:24:33.338Z,0.60
2022-11-17T01:24:45.155Z,0.60
2022-11-17T01:24:56.891Z,0.45
2022-11-17T01:25:09.131Z,0.45
2022-11-17T01:25:20.909Z,0.60
2022-11-17T01:25:32.776Z,0.90
2022-11-17T01:25:44.535Z,0.75
2022-11-17T01:26:12.111Z,0.77
2022-11-17T01:26:26.295Z,0.73
2022-11-17T01:26:38.552Z,0.70
2022-11-17T01:26:51.820Z,0.85
2022-11-17T01:27:03.622Z,1.00
2022-11-17T01:27:15.430Z,0.85
2022-11-17T01:27:27.297Z,0.80
2022-11-17T01:27:39.189Z,0.90
2022-11-17T01:27:51.029Z,0.82
2022-11-17T01:28:02.820Z,0.90
2022-11-17T01:28:14.713Z,1.20
2022-11-17T01:28:26.490Z,1.10
2022-11-17T01:28:38.654Z,0.60
2022-11-17T01:28:50.622Z,1.00
2022-11-17T01:29:03.095Z,0.80
2022-11-17T01:29:17.240Z,0.77
2022-11-17T01:29:29.119Z,0.65
2022-11-17T01:29:40.904Z,1.05
2022-11-17T01:29:52.707Z,1.17
2022-11-17T01:30:05.154Z,0.90
2022-11-17T01:30:18.245Z,0.80
2022-11-17T01:30:30.067Z,1.00
2022-11-17T01:30:41.829Z,0.80
2022-11-17T01:31:06.998Z,0.63
2022-11-17T01:31:30.046Z,0.70
2022-11-17T01:31:43.552Z,0.60
2022-11-17T01:31:55.648Z,0.60
2022-11-17T01:32:07.819Z,0.40
2022-11-17T01:32:19.619Z,0.63
2022-11-17T01:32:31.517Z,0.85
2022-11-17T01:32:43.303Z,0.90
2022-11-17T01:32:55.046Z,0.80
2022-11-17T01:33:06.863Z,0.70
2022-11-17T01:33:18.750Z,1.10
2022-11-17T01:33:30.818Z,1.10
2022-11-17T01:33:42.788Z,0.90
2022-11-17T01:33:54.865Z,0.90
2022-11-17T01:34:07.232Z,0.80
2022-11-17T01:34:19.198Z,0.70
2022-11-17T01:34:34.173Z,0.68
2022-11-17T01:34:46.737Z,0.65
2022-11-17T01:34:58.561Z,0.60
2022-11-17T01:35:10.346Z,0.60
2022-11-17T01:35:22.131Z,0.55
2022-11-17T01:35:34.588Z,0.68
2022-11-17T01:35:46.384Z,1.00
2022-11-17T01:36:03.534Z,1.40
2022-11-17T01:36:20.300Z,1.05
2022-11-17T01:36:52.752Z,1.23
2022-11-17T01:37:19.461Z,0.73
2022-11-17T01:37:31.325Z,0.65
2022-11-17T01:37:43.087Z,0.88
2022-11-17T01:37:54.851Z,0.80
2022-11-17T01:38:06.660Z,0.60
2022-11-17T01:38:18.449Z,0.60
2022-11-17T01:38:30.805Z,0.70
2022-11-17T01:38:42.825Z,0.88
2022-11-17T01:38:54.809Z,0.77
2022-11-17T01:39:06.569Z,0.60
2022-11-17T01:39:18.693Z,0.52
2022-11-17T01:39:31.140Z,0.47
2022-11-17T01:39:42.886Z,0.43
2022-11-17T01:39:54.681Z,0.45
2022-11-17T01:40:08.133Z,0.50
2022-11-17T01:40:20.097Z,0.60
2022-11-17T01:40:31.941Z,0.60
2022-11-17T01:40:43.773Z,0.60
2022-11-17T01:40:58.811Z,0.60
2022-11-17T01:41:15.470Z,0.50
2022-11-17T01:41:28.026Z,0.50
2022-11-17T01:41:39.915Z,0.52
2022-11-17T01:41:52.837Z,0.50
2022-11-17T01:42:11.644Z,0.75
2022-11-17T01:42:25.743Z,0.70
2022-11-17T01:42:37.482Z,0.55
2022-11-17T01:42:49.229Z,0.60
2022-11-17T01:43:01.054Z,0.60
2022-11-17T01:43:13.012Z,0.73
2022-11-17T01:43:55.146Z,0.80
2022-11-17T01:44:51.343Z,0.77
2022-11-17T01:45:21.179Z,0.55
2022-11-17T01:45:33.111Z,0.57
2022-11-17T01:45:44.827Z,0.45
2022-11-17T01:45:56.598Z,0.45
2022-11-17T01:46:33.358Z,0.40
2022-11-17T01:46:45.115Z,0.70
2022-11-17T01:47:00.744Z,0.60
2022-11-17T01:47:26.191Z,0.60
2022-11-17T01:47:45.101Z,0.70
2022-11-17T01:47:58.673Z,0.60
2022-11-17T01:48:10.495Z,0.47
2022-11-17T01:48:22.270Z,0.40
2022-11-17T01:48:34.027Z,0.40
2022-11-17T01:48:45.818Z,0.47
2022-11-17T01:49:25.289Z,0.65
2022-11-17T01:49:37.057Z,0.65
2022-11-17T01:49:56.434Z,0.68
2022-11-17T01:50:40.935Z,0.73
2022-11-17T01:50:52.704Z,0.77
2022-11-17T01:51:04.519Z,1.20
2022-11-17T01:51:16.314Z,1.20
2022-11-17T01:51:28.275Z,0.70
2022-11-17T01:51:45.154Z,0.50
2022-11-17T01:52:01.888Z,0.60
2022-11-17T01:52:13.634Z,0.57
2022-11-17T01:52:25.543Z,0.50
2022-11-17T01:52:38.426Z,0.90
2022-11-17T01:52:51.222Z,1.00
2022-11-17T01:53:08.347Z,0.88
2022-11-17T01:53:20.262Z,0.60
2022-11-17T01:53:35.337Z,0.57
2022-11-17T01:53:47.848Z,1.00
2022-11-17T01:53:59.898Z,0.93
2022-11-17T01:54:12.101Z,0.60
2022-11-17T01:54:25.832Z,0.52
2022-11-17T01:54:40.392Z,0.55
2022-11-17T01:54:52.212Z,0.60
2022-11-17T01:55:04.345Z,0.70
2022-11-17T01:55:16.139Z,0.90
2022-11-17T01:55:51.696Z,0.88
2022-11-17T01:56:06.971Z,0.70
2022-11-17T01:56:24.740Z,0.60
2022-11-17T01:56:40.046Z,0.90
2022-11-17T01:56:54.606Z,0.85
2022-11-17T01:57:15.166Z,0.50
2022-11-17T01:57:33.810Z,0.63
2022-11-17T01:57:56.756Z,0.70
2022-11-17T01:58:15.488Z,0.70
2022-11-17T01:58:36.524Z,0.65
2022-11-17T01:58:53.434Z,0.65
2022-11-17T01:59:14.288Z,0.55
2022-11-17T01:59:35.649Z,1.13
2022-11-17T01:59:52.569Z,0.80
2022-11-17T02:00:07.465Z,0.88
2022-11-17T02:00:19.347Z,0.85
2022-11-17T02:00:31.117Z,0.80
2022-11-17T02:00:42.963Z,0.68
2022-11-17T02:00:54.846Z,0.82
2022-11-17T02:01:06.724Z,0.82
2022-11-17T02:01:18.572Z,1.20
2022-11-17T02:01:30.571Z,0.90
2022-11-17T02:01:55.858Z,0.60
2022-11-17T02:02:08.029Z,1.15
2022-11-17T02:02:20.015Z,1.35
2022-11-17T02:02:31.862Z,1.23
2022-11-17T02:02:43.811Z,0.90
2022-11-17T02:02:55.588Z,0.63
2022-11-17T02:03:07.431Z,0.55
2022-11-17T02:03:19.269Z,0.80
2022-11-17T02:03:33.156Z,0.98
2022-11-17T02:03:45.182Z,1.10
2022-11-17T02:03:56.982Z,0.98
2022-11-17T02:04:08.728Z,0.77
2022-11-17T02:04:20.500Z,0.60
2022-11-17T02:04:41.296Z,0.43
2022-11-17T02:05:22.720Z,0.57
2022-11-17T02:05:48.464Z,0.80
2022-11-17T02:06:18.861Z,0.40
2022-11-17T02:06:34.143Z,0.85
2022-11-17T02:06:45.866Z,0.95
2022-11-17T02:07:22.739Z,1.08
2022-11-17T02:07:38.756Z,0.50
2022-11-17T02:07:52.326Z,0.40
2022-11-17T02:08:05.791Z,0.43
2022-11-17T02:08:18.457Z,0.68
2022-11-17T02:08:31.812Z,0.82
2022-11-17T02:08:45.097Z,0.70
2022-11-17T02:08:56.879Z,0.80
2022-11-17T02:09:08.621Z,0.70
2022-11-17T02:09:20.326Z,0.65
2022-11-17T02:09:33.333Z,0.50
2022-11-17T02:09:45.108Z,0.63
2022-11-17T02:09:56.988Z,0.80
2022-11-17T02:10:08.948Z,0.70
2022-11-17T02:10:20.936Z,0.82
2022-11-17T02:10:32.823Z,0.90
2022-11-17T02:10:50.205Z,0.65
2022-11-17T02:11:04.693Z,0.60
2022-11-17T02:11:18.791Z,1.10
2022-11-17T02:11:36.015Z,1.27
2022-11-17T02:11:48.080Z,0.80
2022-11-17T02:11:59.871Z,0.85
2022-11-17T02:12:13.182Z,0.82
2022-11-17T02:12:26.325Z,0.77
2022-11-17T02:12:38.105Z,0.90
2022-11-17T02:12:49.889Z,0.70
2022-11-17T02:13:01.879Z,0.63
2022-11-17T02:13:13.756Z,0.50
2022-11-17T02:13:25.571Z,0.65
2022-11-17T02:13:37.747Z,0.63
2022-11-17T02:13:50.247Z,0.85
2022-11-17T02:14:02.428Z,0.90
2022-11-17T02:14:14.193Z,1.17
2022-11-17T02:14:25.965Z,1.00
2022-11-17T02:14:38.006Z,1.15
2022-11-17T02:14:50.456Z,0.90
2022-11-17T02:15:02.333Z,0.88
2022-11-17T02:15:14.165Z,0.73
2022-11-17T02:15:26.553Z,0.70
2022-11-17T02:15:38.362Z,0.80
2022-11-17T02:15:50.268Z,0.80
2022-11-17T02:16:02.017Z,0.70
2022-11-17T02:16:15.374Z,0.52
2022-11-17T02:16:27.132Z,0.50
2022-11-17T02:16:39.003Z,0.47
2022-11-17T02:16:51.326Z,0.50
2022-11-17T02:17:11.527Z,0.60
2022-11-17T02:17:34.288Z,0.80
2022-11-17T02:17:46.129Z,0.70
2022-11-17T02:17:58.428Z,0.35
2022-11-17T02:18:10.177Z,0.40
2022-11-17T02:18:21.996Z,0.40
2022-11-17T02:18:33.840Z,0.40
2022-11-17T02:18:46.032Z,0.60
2022-11-17T02:18:57.920Z,0.75
2022-11-17T02:19:09.805Z,0.50
2022-11-17T02:19:21.682Z,0.50
2022-11-17T02:19:38.878Z,0.57
2022-11-17T02:20:14.768Z,0.50
2022-11-17T02:20:51.892Z,0.55
2022-11-17T02:21:24.468Z,0.50
2022-11-17T02:22:13.710Z,1.13
2022-11-17T02:22:36.011Z,0.43
2022-11-17T02:23:38.592Z,0.70
2022-11-17T02:24:20.801Z,0.45
2022-11-17T02:24:59.349Z,0.57
2022-11-17T02:25:47.680Z,0.40
2022-11-17T02:26:27.323Z,0.63
2022-11-17T02:27:21.142Z,0.50
2022-11-17T02:27:52.807Z,0.40
2022-11-17T02:28:24.952Z,0.50
2022-11-17T02:29:21.685Z,0.38
2022-11-17T02:30:06.071Z,0.70
2022-11-17T02:30:19.821Z,0.45
2022-11-17T02:31:00.233Z,0.68
2022-11-17T02:31:25.584Z,0.80
2022-11-17T02:32:11.367Z,0.60
2022-11-17T02:32:41.959Z,0.60
2022-11-17T02:33:26.039Z,0.70
2022-11-17T02:33:59.615Z,0.47
2022-11-17T02:34:24.580Z,0.40
2022-11-17T02:35:00.406Z,0.30
2022-11-17T02:36:00.259Z,0.57
2022-11-17T02:36:31.532Z,0.60
2022-11-17T02:37:07.528Z,0.60
2022-11-17T02:37:39.279Z,0.30
2022-11-17T02:38:06.000Z,0.38
2022-11-17T02:38:46.397Z,0.47
2022-11-17T02:39:35.976Z,0.45
2022-11-17T02:39:57.907Z,1.30
2022-11-17T02:40:14.796Z,0.50
2022-11-17T02:40:42.077Z,0.40
2022-11-17T02:41:18.992Z,0.40
2022-11-17T02:41:49.485Z,0.50
2022-11-17T02:42:20.201Z,0.60
2022-11-17T02:43:01.279Z,0.40
2022-11-17T02:43:37.694Z,0.30
2022-11-17T02:44:31.260Z,0.50
2022-11-17T02:44:48.228Z,0.30
2022-11-17T02:45:00.902Z,0.40
2022-11-17T02:45:26.296Z,0.43
2022-11-17T02:45:42.085Z,0.50
2022-11-17T02:46:09.494Z,0.40
2022-11-17T02:46:22.327Z,0.70
2022-11-17T02:46:53.022Z,0.90
2022-11-17T02:47:12.952Z,0.25
2022-11-17T02:47:28.567Z,0.90
2022-11-17T02:47:40.382Z,0.75
2022-11-17T02:47:54.204Z,0.50
2022-11-17T02:48:11.265Z,0.52
2022-11-17T02:48:28.360Z,0.80
2022-11-17T02:48:48.220Z,0.60
2022-11-17T02:49:04.100Z,0.50
2022-11-17T02:49:34.529Z,0.68
2022-11-17T02:50:06.710Z,0.50
2022-11-17T02:50:20.408Z,0.47
2022-11-17T02:50:33.658Z,0.40
2022-11-17T02:50:46.348Z,0.40
2022-11-17T02:50:58.243Z,0.30
2022-11-17T02:51:13.928Z,0.40
2022-11-17T02:51:25.804Z,0.40
2022-11-17T02:51:40.840Z,0.30
2022-11-17T02:51:54.930Z,0.38
2022-11-17T02:52:07.286Z,0.30
2022-11-17T02:52:19.105Z,0.35
2022-11-17T02:52:30.956Z,0.47
2022-11-17T02:52:42.725Z,1.10
2022-11-17T02:52:54.475Z,1.00
2022-11-17T02:53:06.251Z,1.10
2022-11-17T02:53:18.104Z,0.43
2022-11-17T02:53:29.911Z,0.40
2022-11-17T02:53:41.703Z,0.45
2022-11-17T02:53:54.913Z,0.75
2022-11-17T02:54:07.208Z,0.70
2022-11-17T02:54:19.738Z,0.65
2022-11-17T02:54:31.850Z,0.60
2022-11-17T02:54:43.594Z,0.90
2022-11-17T02:55:09.565Z,0.80
2022-11-17T02:55:21.418Z,0.22
2022-11-17T02:55:36.223Z,0.28
2022-11-17T02:55:52.317Z,0.28
2022-11-17T02:56:04.476Z,0.32
2022-11-17T02:56:16.229Z,0.60
2022-11-17T02:56:27.986Z,0.55
2022-11-17T02:56:43.627Z,0.20
2022-11-17T02:56:55.445Z,0.30
2022-11-17T02:57:27.245Z,0.40
2022-11-17T02:57:40.603Z,0.50
2022-11-17T02:57:52.387Z,0.43
2022-11-17T02:58:04.181Z,0.40
2022-11-17T02:58:15.919Z,0.40
2022-11-17T02:58:27.753Z,0.32
2022-11-17T02:58:39.585Z,0.50
2022-11-17T02:58:53.139Z,0.47
2022-11-17T02:59:04.932Z,0.40
2022-11-17T02:59:18.921Z,0.40
2022-11-17T02:59:35.543Z,0.30
2022-11-17T02:59:48.139Z,0.30
2022-11-17T03:00:04.784Z,0.40
2022-11-17T03:00:19.697Z,0.40
2022-11-17T03:00:31.433Z,0.40
2022-11-17T03:01:22.070Z,0.40
2022-11-17T03:02:08.726Z,0.65
2022-11-17T03:02:39.259Z,0.80
2022-11-17T03:03:30.244Z,0.50
2022-11-17T03:08:37.513Z,1.00
2022-11-17T03:09:03.591Z,0.38
2022-11-17T03:09:38.877Z,0.80
2022-11-17T03:10:20.186Z,0.68
2022-11-17T03:10:58.767Z,0.45
2022-11-17T03:11:10.688Z,0.70
2022-11-17T03:11:26.703Z,0.63
2022-11-17T03:11:54.087Z,0.50
2022-11-17T03:12:21.382Z,0.45
2022-11-17T03:12:54.492Z,0.45
2022-11-17T03:13:18.791Z,0.20
2022-11-17T03:13:53.732Z,0.50
2022-11-17T03:14:27.235Z,0.55
2022-11-17T03:14:52.836Z,0.30
2022-11-17T03:15:30.249Z,0.50
2022-11-17T03:16:37.434Z,0.50
2022-11-17T03:17:28.313Z,0.30
2022-11-17T03:18:07.718Z,0.40
2022-11-17T03:18:37.340Z,1.30
2022-11-17T03:19:29.163Z,0.75
2022-11-17T03:20:03.504Z,0.55
2022-11-17T03:20:26.213Z,0.50
2022-11-17T03:20:53.100Z,0.40
2022-11-17T03:21:38.540Z,0.30
2022-11-17T03:22:24.953Z,0.52
2022-11-17T03:22:56.268Z,0.90
2022-11-17T03:23:26.452Z,0.40
2022-11-17T03:23:58.337Z,0.30
2022-11-17T03:24:29.878Z,0.30
2022-11-17T03:24:55.269Z,0.30
2022-11-17T03:25:07.643Z,0.50
2022-11-17T03:25:20.715Z,0.50
2022-11-17T03:25:34.016Z,0.30
2022-11-17T03:25:49.032Z,0.30
2022-11-17T03:26:00.746Z,0.20
2022-11-17T03:26:14.432Z,0.20
2022-11-17T03:26:33.619Z,0.30
2022-11-17T03:26:55.237Z,0.32
2022-11-17T03:27:25.354Z,0.30
2022-11-17T03:27:44.193Z,0.30
2022-11-17T03:27:58.700Z,0.50
2022-11-17T03:28:10.707Z,0.38
2022-11-17T03:28:26.145Z,0.20
2022-11-17T03:28:38.051Z,0.30
2022-11-17T03:28:49.956Z,0.30
2022-11-17T03:29:02.982Z,0.35
2022-11-17T03:29:16.812Z,0.50
2022-11-17T03:29:30.807Z,0.70
2022-11-17T03:29:46.078Z,0.52
2022-11-17T03:30:00.746Z,0.40
2022-11-17T03:30:13.211Z,0.20
2022-11-17T03:30:26.020Z,0.30
2022-11-17T03:30:40.380Z,0.30
2022-11-17T03:30:52.312Z,0.30
2022-11-17T03:31:05.007Z,0.32
2022-11-17T03:31:16.704Z,0.30
2022-11-17T03:31:28.705Z,0.20
2022-11-17T03:31:40.610Z,0.40
2022-11-17T03:31:55.821Z,0.52
2022-11-17T03:32:07.708Z,0.35
2022-11-17T03:32:19.592Z,0.57
2022-11-17T03:32:35.558Z,0.50
2022-11-17T03:32:51.967Z,0.30
2022-11-17T03:33:08.048Z,0.30
2022-11-17T03:33:21.793Z,0.30
2022-11-17T03:33:34.079Z,0.60
2022-11-17T03:33:46.025Z,0.70
2022-11-17T03:33:57.958Z,0.30
2022-11-17T03:34:13.422Z,0.30
2022-11-17T03:34:25.202Z,0.30
2022-11-17T03:34:42.755Z,0.60
2022-11-17T03:35:03.981Z,0.70
2022-11-17T03:35:19.724Z,0.40
2022-11-17T03:35:34.096Z,0.30
2022-11-17T03:36:00.650Z,0.30
2022-11-17T03:36:15.233Z,0.50
2022-11-17T03:36:36.682Z,0.43
2022-11-17T03:36:52.129Z,0.20
2022-11-17T03:37:05.862Z,0.30
2022-11-17T03:37:19.091Z,0.30
2022-11-17T03:37:32.030Z,0.40
2022-11-17T03:37:52.144Z,0.40
2022-11-17T03:38:08.504Z,0.45
2022-11-17T03:38:22.315Z,0.52
2022-11-17T03:38:37.618Z,0.40
2022-11-17T03:38:58.927Z,0.30
2022-11-17T03:39:16.077Z,0.30
2022-11-17T03:39:36.772Z,0.40
2022-11-17T03:39:52.719Z,0.60
2022-11-17T03:40:12.923Z,0.40
2022-11-17T03:40:28.221Z,0.35
2022-11-17T03:40:41.187Z,0.50
2022-11-17T03:40:52.998Z,0.52
2022-11-17T03:41:05.352Z,0.60
2022-11-17T03:41:17.434Z,0.40
2022-11-17T03:41:30.188Z,0.32
2022-11-17T03:41:45.125Z,0.70